Hoopeston, Illinois
Current Conditions -  °F | °C
As of 2:55 PM on Friday 31 Oct 2014 (Local Time) from KDNV Reporting Station
Overcast Overcast  
Wind Chill: 29°   Ceiling: 4000
Heat Index: 40°   Visibility: 10mi
Dew Point: 26°   Wind: 23mph
Humidity: 59%   Direction: 320°NW
Pressure: 30.08"   Gusts: 32mph
Location:  40.47°N, 87.67°W
Report Text: KDNV 311955Z AUTO 32020G28KT 10SM OVC040 04/M03 A3008 RMK AO2 T00421032
Loading
Personal Weather Stations






























Interactive Weather Map
Tropical Storm Tracking
New forecast layout! Learn more

10-Day Weather Forecast

Advertisements
Track Severe Weather on mobile